Time;durP1;ratioP1;P1;durP2;ratioP2;P2;SDS_P1;SDS_P2;PMS_P1;PMS_P2;Temp;Humidity;BMP_temperature;BMP_pressure;BME280_temperature;BME280_humidity;BME280_pressure;Samples;Min_cycle;Max_cycle;Signal;HPM_P1;HPM_P2
2022/11/29 00:03:05;;;;;;;16.15;6.00;;;;;;;;;;10479563;28;20215;-65
2022/11/29 00:08:06;;;;;;;11.25;5.60;;;;;;;;;;10479393;28;20545;-65
2022/11/29 00:13:07;;;;;;;8.63;5.60;;;;;;;;;;10468504;28;20051;-63
2022/11/29 00:18:07;;;;;;;15.10;6.00;;;;;;;;;;10477561;28;20033;-65
2022/11/29 00:23:08;;;;;;;9.38;5.80;;;;;;;;;;10488056;28;20020;-65
2022/11/29 00:28:08;;;;;;;10.85;4.97;;;;;;;;;;10488902;28;20040;-64
2022/11/29 00:33:09;;;;;;;11.23;5.28;;;;;;;;;;10469174;28;20044;-65
2022/11/29 00:38:11;;;;;;;7.80;5.03;;;;;;;;;;10489230;28;20051;-64
2022/11/29 00:43:11;;;;;;;8.50;4.85;;;;;;;;;;10480335;28;20036;-66
2022/11/29 00:48:12;;;;;;;7.88;5.30;;;;;;;;;;10491198;28;20029;-65
2022/11/29 00:53:12;;;;;;;10.25;5.13;;;;;;;;;;10491535;28;20024;-66
2022/11/29 00:58:13;;;;;;;8.70;5.38;;;;;;;;;;10479893;28;20051;-64
2022/11/29 01:03:15;;;;;;;7.57;5.32;;;;;;;;;;10452829;28;20094;-66
2022/11/29 01:08:16;;;;;;;8.32;5.20;;;;;;;;;;10488546;28;20400;-65
2022/11/29 01:13:17;;;;;;;9.50;5.00;;;;;;;;;;10468141;28;20382;-66
2022/11/29 01:18:17;;;;;;;11.00;5.35;;;;;;;;;;10459309;28;20044;-66
2022/11/29 01:23:18;;;;;;;10.05;5.22;;;;;;;;;;10460755;28;20514;-66
2022/11/29 01:28:18;;;;;;;8.23;5.10;;;;;;;;;;10449696;28;20499;-66
2022/11/29 01:33:19;;;;;;;7.72;5.10;;;;;;;;;;10444544;28;20415;-66
2022/11/29 01:38:21;;;;;;;12.40;4.95;;;;;;;;;;10448858;28;20025;-65
2022/11/29 01:43:22;;;;;;;10.40;5.63;;;;;;;;;;10448561;28;20029;-66
2022/11/29 01:48:29;;;;;;;7.32;5.05;;;;;;;;;;10431349;28;20029;-64
2022/11/29 01:53:30;;;;;;;7.32;5.28;;;;;;;;;;10425245;28;20025;-66
2022/11/29 01:58:32;;;;;;;7.28;4.30;;;;;;;;;;10430004;28;20047;-66
2022/11/29 02:03:32;;;;;;;12.30;5.38;;;;;;;;;;10419641;28;20064;-66
2022/11/29 02:08:39;;;;;;;9.52;4.47;;;;;;;;;;10448744;28;20055;-65
2022/11/29 02:13:55;;;;;;;8.07;4.88;;;;;;;;;;10445295;28;20024;-66
2022/11/29 02:19:35;;;;;;;9.98;4.93;;;;;;;;;;10448005;28;20025;-66
2022/11/29 02:25:16;;;;;;;7.57;4.60;;;;;;;;;;10432513;28;20029;-65
2022/11/29 02:30:47;;;;;;;5.07;3.85;;;;;;;;;;10447822;28;20094;-65
2022/11/29 02:36:21;;;;;;;8.38;4.72;;;;;;;;;;10429362;28;20029;-66
2022/11/29 02:41:52;;;;;;;6.07;4.28;;;;;;;;;;10448499;28;20044;-66
2022/11/29 02:47:04;;;;;;;6.05;4.35;;;;;;;;;;10443545;28;20040;-66
2022/11/29 02:52:24;;;;;;;7.97;4.10;;;;;;;;;;10456080;28;20576;-65
2022/11/29 02:57:52;;;;;;;6.53;4.38;;;;;;;;;;10431950;28;20392;-65
2022/11/29 03:03:09;;;;;;;7.05;4.30;;;;;;;;;;10432427;28;20421;-64
2022/11/29 03:09:05;;;;;;;6.88;4.28;;;;;;;;;;10426929;28;20043;-66
2022/11/29 03:14:05;;;;;;;6.75;4.13;;;;;;;;;;10441311;28;20025;-66
2022/11/29 03:19:54;;;;;;;5.88;3.80;;;;;;;;;;10448077;28;20488;-66
2022/11/29 03:25:28;;;;;;;;;;;;;;;;;;10453756;28;20056;-67
2022/11/29 03:30:33;;;;;;;6.03;3.97;;;;;;;;;;10440112;28;19913;-65
2022/11/29 03:35:47;;;;;;;4.68;3.65;;;;;;;;;;10435096;28;20036;-64
2022/11/29 03:41:05;;;;;;;6.45;3.83;;;;;;;;;;10425995;28;20155;-63
2022/11/29 03:46:22;;;;;;;5.60;3.88;;;;;;;;;;10443877;28;20036;-63
2022/11/29 03:51:53;;;;;;;7.30;3.78;;;;;;;;;;10434668;28;20151;-63
2022/11/29 03:56:54;;;;;;;9.65;3.78;;;;;;;;;;10438445;28;20106;-63
2022/11/29 04:02:13;;;;;;;4.97;3.63;;;;;;;;;;10452973;28;20033;-63
2022/11/29 04:08:01;;;;;;;5.97;4.05;;;;;;;;;;10452557;28;20037;-64
2022/11/29 04:13:23;;;;;;;4.60;3.77;;;;;;;;;;10424914;28;20455;-64
2022/11/29 04:19:05;;;;;;;7.10;3.80;;;;;;;;;;10441147;28;20043;-66
2022/11/29 04:24:51;;;;;;;7.32;3.72;;;;;;;;;;10421957;28;20044;-67
2022/11/29 04:30:23;;;;;;;5.30;3.50;;;;;;;;;;10435879;28;20044;-66
2022/11/29 04:35:47;;;;;;;5.80;3.70;;;;;;;;;;10430125;28;20116;-66
2022/11/29 04:41:21;;;;;;;6.95;3.80;;;;;;;;;;10430443;28;20031;-65
2022/11/29 04:46:34;;;;;;;7.07;3.85;;;;;;;;;;10442448;28;20369;-65
2022/11/29 04:52:05;;;;;;;4.75;3.67;;;;;;;;;;10430148;28;20353;-65
2022/11/29 04:57:49;;;;;;;4.28;3.20;;;;;;;;;;10401686;28;20045;-66
2022/11/29 05:03:06;;;;;;;4.03;3.33;;;;;;;;;;10403918;28;20504;-65
2022/11/29 05:08:36;;;;;;;4.25;3.10;;;;;;;;;;10422118;28;20024;-65
2022/11/29 05:14:10;;;;;;;4.55;3.50;;;;;;;;;;10438346;28;20025;-66
2022/11/29 05:19:27;;;;;;;4.57;3.25;;;;;;;;;;10446126;28;20075;-66
2022/11/29 05:24:55;;;;;;;4.38;3.15;;;;;;;;;;10447904;28;20036;-67
2022/11/29 05:30:09;;;;;;;3.10;2.80;;;;;;;;;;10444464;28;20033;-65
2022/11/29 05:36:02;;;;;;;4.15;3.20;;;;;;;;;;10448535;28;20044;-65
2022/11/29 05:41:36;;;;;;;6.68;3.53;;;;;;;;;;10443094;28;20044;-65
2022/11/29 05:46:59;;;;;;;5.13;3.33;;;;;;;;;;10379663;28;20043;-65
2022/11/29 05:52:40;;;;;;;4.82;2.97;;;;;;;;;;10445502;28;20025;-64
2022/11/29 05:58:24;;;;;;;4.72;3.03;;;;;;;;;;10448359;28;20024;-65
2022/11/29 06:03:58;;;;;;;5.50;3.30;;;;;;;;;;10438175;28;20047;-66
2022/11/29 06:09:10;;;;;;;6.25;2.95;;;;;;;;;;10439841;28;20169;-66
2022/11/29 06:14:34;;;;;;;4.30;2.95;;;;;;;;;;10451270;28;20037;-64
2022/11/29 06:20:08;;;;;;;4.82;3.00;;;;;;;;;;10447800;28;20061;-66
2022/11/29 06:26:04;;;;;;;4.65;3.33;;;;;;;;;;10433789;28;20053;-64
2022/11/29 06:31:37;;;;;;;10.23;2.95;;;;;;;;;;10354136;28;20048;-62
2022/11/29 06:36:56;;;;;;;6.75;3.58;;;;;;;;;;10355579;28;20026;-62
2022/11/29 06:41:56;;;;;;;4.65;3.50;;;;;;;;;;10372693;28;20120;-63
2022/11/29 06:47:17;;;;;;;6.70;3.67;;;;;;;;;;10358248;28;20473;-62
2022/11/29 06:52:57;;;;;;;11.85;4.00;;;;;;;;;;10360265;28;20400;-62
2022/11/29 06:58:20;;;;;;;11.90;4.03;;;;;;;;;;10354569;28;20078;-62
2022/11/29 07:03:48;;;;;;;10.85;3.50;;;;;;;;;;10341169;28;20068;-63
2022/11/29 07:09:12;;;;;;;8.77;3.58;;;;;;;;;;10351140;28;20112;-62
2022/11/29 07:14:13;;;;;;;5.28;3.50;;;;;;;;;;10350113;28;20214;-63
2022/11/29 07:19:54;;;;;;;10.98;3.80;;;;;;;;;;10369980;28;20061;-60
2022/11/29 07:25:10;;;;;;;7.15;4.18;;;;;;;;;;10361866;28;20034;-61
2022/11/29 07:30:19;;;;;;;9.93;3.70;;;;;;;;;;10365589;28;20044;-62
2022/11/29 07:35:38;;;;;;;10.10;3.75;;;;;;;;;;10367035;28;20072;-62
2022/11/29 07:40:59;;;;;;;8.13;3.40;;;;;;;;;;10372018;28;20108;-62
2022/11/29 07:46:00;;;;;;;6.15;3.58;;;;;;;;;;10360626;28;20033;-62
2022/11/29 07:51:01;;;;;;;8.18;4.05;;;;;;;;;;10354677;28;20037;-62
2022/11/29 07:56:01;;;;;;;6.88;3.70;;;;;;;;;;10355452;28;20030;-61
2022/11/29 08:01:02;;;;;;;6.45;3.40;;;;;;;;;;10372832;28;20018;-61
2022/11/29 08:06:03;;;;;;;7.60;4.07;;;;;;;;;;10371483;28;20026;-61
2022/11/29 08:11:13;;;;;;;6.22;3.55;;;;;;;;;;10363549;28;20042;-62
2022/11/29 08:16:17;;;;;;;6.63;3.67;;;;;;;;;;10371145;28;20026;-62
2022/11/29 08:21:18;;;;;;;5.30;3.38;;;;;;;;;;10370509;28;20026;-62
2022/11/29 08:26:20;;;;;;;4.65;3.03;;;;;;;;;;10372519;28;20054;-61
2022/11/29 08:31:21;;;;;;;4.90;3.05;;;;;;;;;;10369618;28;20046;-62
2022/11/29 08:36:21;;;;;;;8.23;3.80;;;;;;;;;;10352931;28;20053;-61
2022/11/29 08:41:22;;;;;;;4.75;2.72;;;;;;;;;;10370772;28;20036;-61
2022/11/29 08:47:34;;;;;;;5.35;3.25;;;;;;;;;;10368422;28;20030;-62
2022/11/29 08:51:43;;;;;;;8.32;3.40;;;;;;;;;;10369738;28;20029;-61
2022/11/29 08:56:44;;;;;;;5.53;3.40;;;;;;;;;;10369507;28;20022;-61
2022/11/29 09:01:44;;;;;;;7.03;3.10;;;;;;;;;;10381710;28;20182;-61
2022/11/29 09:06:48;;;;;;;3.75;2.90;;;;;;;;;;10369192;28;20021;-59
2022/11/29 09:11:48;;;;;;;5.53;2.88;;;;;;;;;;10357982;28;20037;-59
2022/11/29 09:16:49;;;;;;;3.55;2.83;;;;;;;;;;10367990;28;20022;-59
2022/11/29 09:21:50;;;;;;;3.97;2.67;;;;;;;;;;10368600;28;20033;-59
2022/11/29 09:26:50;;;;;;;3.08;2.65;;;;;;;;;;10368151;28;20053;-59
2022/11/29 09:31:51;;;;;;;3.35;2.80;;;;;;;;;;10369165;28;20026;-60
2022/11/29 09:36:51;;;;;;;4.05;2.67;;;;;;;;;;10366242;28;20527;-60
2022/11/29 09:42:30;;;;;;;4.90;2.80;;;;;;;;;;10367318;28;20253;-60
2022/11/29 09:47:48;;;;;;;5.40;2.83;;;;;;;;;;10355655;28;20030;-60
2022/11/29 09:53:02;;;;;;;;;;;;;;;;;;10357681;28;20121;-59
2022/11/29 09:58:09;;;;;;;4.68;2.70;;;;;;;;;;10349941;28;19976;-61
2022/11/29 10:03:39;;;;;;;2.85;2.55;;;;;;;;;;10350763;28;20046;-61
2022/11/29 10:08:58;;;;;;;4.80;2.85;;;;;;;;;;10349533;28;20018;-61
2022/11/29 10:14:10;;;;;;;4.82;3.03;;;;;;;;;;10354801;28;20037;-62
2022/11/29 10:19:44;;;;;;;4.22;2.58;;;;;;;;;;10367166;28;20041;-61
2022/11/29 10:24:50;;;;;;;4.93;2.90;;;;;;;;;;10364919;28;20044;-61
2022/11/29 10:29:51;;;;;;;4.63;2.83;;;;;;;;;;10364897;28;20038;-61
2022/11/29 10:34:52;;;;;;;5.30;2.45;;;;;;;;;;10355547;28;20120;-62
2022/11/29 10:40:06;;;;;;;7.45;2.90;;;;;;;;;;10366030;28;20029;-62
2022/11/29 10:45:18;;;;;;;4.40;2.47;;;;;;;;;;10363179;28;20029;-62
2022/11/29 10:50:22;;;;;;;4.15;2.70;;;;;;;;;;10390967;28;20037;-61
2022/11/29 10:55:25;;;;;;;5.28;2.85;;;;;;;;;;10396369;28;20247;-62
2022/11/29 11:00:27;;;;;;;3.33;2.40;;;;;;;;;;10377349;28;20112;-62
2022/11/29 11:05:27;;;;;;;2.97;2.33;;;;;;;;;;10389569;28;20030;-61
2022/11/29 11:10:29;;;;;;;3.60;2.50;;;;;;;;;;10349565;28;20041;-61
2022/11/29 11:15:31;;;;;;;4.68;2.90;;;;;;;;;;10348961;28;20061;-60
2022/11/29 11:20:36;;;;;;;5.80;2.40;;;;;;;;;;10372906;28;20026;-61
2022/11/29 11:25:39;;;;;;;3.25;2.53;;;;;;;;;;10360800;28;20041;-61
2022/11/29 11:30:48;;;;;;;5.88;2.50;;;;;;;;;;10411845;28;20025;-61
2022/11/29 11:36:02;;;;;;;3.15;2.60;;;;;;;;;;10394643;28;20301;-61
2022/11/29 11:41:22;;;;;;;6.97;2.75;;;;;;;;;;10405845;28;20049;-63
2022/11/29 11:46:52;;;;;;;4.18;2.45;;;;;;;;;;10410903;28;20018;-62
2022/11/29 11:51:52;;;;;;;3.90;2.55;;;;;;;;;;10412865;28;20100;-64
2022/11/29 11:56:53;;;;;;;6.45;3.03;;;;;;;;;;10411705;28;20017;-63
2022/11/29 12:01:53;;;;;;;5.80;2.70;;;;;;;;;;10412372;28;20029;-63
2022/11/29 12:06:58;;;;;;;3.10;2.55;;;;;;;;;;10411636;28;20079;-63
2022/11/29 12:12:20;;;;;;;5.07;2.65;;;;;;;;;;10402211;28;20033;-63
2022/11/29 12:17:49;;;;;;;4.95;2.97;;;;;;;;;;10411471;28;20030;-63
2022/11/29 12:23:11;;;;;;;4.38;2.78;;;;;;;;;;10407696;28;20022;-63
2022/11/29 12:28:15;;;;;;;4.25;2.42;;;;;;;;;;10383431;28;20101;-63
2022/11/29 12:33:27;;;;;;;6.88;3.25;;;;;;;;;;10349471;28;20061;-63
2022/11/29 12:39:02;;;;;;;3.80;2.33;;;;;;;;;;10367692;28;20069;-63
2022/11/29 12:44:27;;;;;;;4.28;2.67;;;;;;;;;;10363487;28;20030;-63
2022/11/29 12:49:54;;;;;;;4.85;2.47;;;;;;;;;;10356421;28;20030;-64
2022/11/29 12:56:06;;;;;;;2.63;2.38;;;;;;;;;;10338947;28;20199;-63
2022/11/29 13:01:35;;;;;;;7.10;2.65;;;;;;;;;;10269810;28;20124;-62
2022/11/29 13:06:55;;;;;;;3.45;2.60;;;;;;;;;;10359369;28;20608;-63
2022/11/29 13:12:44;;;;;;;4.88;2.20;;;;;;;;;;10337062;28;21341;-63
2022/11/29 13:17:51;;;;;;;3.53;2.28;;;;;;;;;;10240281;28;20126;-62
2022/11/29 13:23:27;;;;;;;3.53;2.53;;;;;;;;;;10239128;28;20066;-63
2022/11/29 13:28:31;;;;;;;2.72;2.38;;;;;;;;;;10199378;28;20063;-60
2022/11/29 13:34:02;;;;;;;3.20;2.30;;;;;;;;;;10235027;28;20658;-62
2022/11/29 13:39:35;;;;;;;7.65;2.60;;;;;;;;;;10240560;28;20070;-63
2022/11/29 13:45:01;;;;;;;3.40;2.88;;;;;;;;;;10240179;28;20530;-62
2022/11/29 13:50:02;;;;;;;3.90;2.63;;;;;;;;;;10360119;28;20121;-62
2022/11/29 13:55:30;;;;;;;4.65;2.45;;;;;;;;;;10343509;28;20036;-60
2022/11/29 14:00:43;;;;;;;2.67;2.03;;;;;;;;;;10350409;28;20049;-61
2022/11/29 14:05:46;;;;;;;3.90;2.45;;;;;;;;;;10341830;28;20492;-61
2022/11/29 14:10:49;;;;;;;4.70;2.55;;;;;;;;;;10360821;28;20275;-61
2022/11/29 14:15:57;;;;;;;9.45;2.22;;;;;;;;;;10344706;28;20030;-61
2022/11/29 14:20:58;;;;;;;2.77;2.43;;;;;;;;;;10360848;28;20026;-61
2022/11/29 14:25:59;;;;;;;3.85;2.78;;;;;;;;;;10365498;28;20628;-61
2022/11/29 14:31:05;;;;;;;3.78;2.33;;;;;;;;;;10365641;28;20026;-59
2022/11/29 14:36:17;;;;;;;4.90;2.47;;;;;;;;;;10347754;28;20029;-60
2022/11/29 14:41:47;;;;;;;4.40;2.63;;;;;;;;;;10362727;28;20022;-60
2022/11/29 14:46:59;;;;;;;3.10;2.38;;;;;;;;;;10374269;28;20021;-61
2022/11/29 14:52:20;;;;;;;4.18;2.38;;;;;;;;;;10387768;28;20511;-61
2022/11/29 14:57:45;;;;;;;4.47;2.10;;;;;;;;;;10376848;28;20033;-61
2022/11/29 15:02:54;;;;;;;4.13;2.20;;;;;;;;;;10370939;28;20026;-61
2022/11/29 15:08:25;;;;;;;4.20;2.22;;;;;;;;;;10362067;28;20071;-61
2022/11/29 15:13:34;;;;;;;8.02;2.40;;;;;;;;;;10351898;28;20117;-58
2022/11/29 15:19:12;;;;;;;4.70;2.80;;;;;;;;;;10367907;28;20504;-61
2022/11/29 15:24:16;;;;;;;3.58;2.28;;;;;;;;;;10373730;28;20040;-61
2022/11/29 15:29:20;;;;;;;3.15;2.35;;;;;;;;;;10364662;23;20061;-62
2022/11/29 15:34:36;;;;;;;4.00;2.03;;;;;;;;;;10374747;28;20048;-62
2022/11/29 15:39:38;;;;;;;4.55;2.30;;;;;;;;;;10410295;28;20029;-62
2022/11/29 15:44:48;;;;;;;5.88;2.22;;;;;;;;;;10407940;28;20393;-62
2022/11/29 15:49:50;;;;;;;2.85;2.17;;;;;;;;;;10423710;28;20029;-62
2022/11/29 15:55:05;;;;;;;2.85;2.17;;;;;;;;;;10410770;28;20033;-62
2022/11/29 16:00:29;;;;;;;2.70;2.25;;;;;;;;;;10409771;28;20346;-62
2022/11/29 16:05:36;;;;;;;4.47;2.33;;;;;;;;;;10397868;28;20133;-62
2022/11/29 16:10:49;;;;;;;3.47;2.33;;;;;;;;;;10404847;28;20043;-62
2022/11/29 16:16:14;;;;;;;4.35;2.10;;;;;;;;;;10402147;28;20124;-62
2022/11/29 16:21:31;;;;;;;2.63;2.25;;;;;;;;;;10414680;28;20069;-62
2022/11/29 16:26:42;;;;;;;3.13;2.22;;;;;;;;;;10410494;28;20046;-62
2022/11/29 16:31:43;;;;;;;4.25;2.00;;;;;;;;;;10407156;28;20373;-62
2022/11/29 16:36:43;;;;;;;3.50;2.22;;;;;;;;;;10410162;28;20025;-61
2022/11/29 16:42:09;;;;;;;8.38;2.60;;;;;;;;;;10410290;28;20472;-61
2022/11/29 16:47:44;;;;;;;3.17;2.83;;;;;;;;;;10404833;28;20037;-61
2022/11/29 16:52:46;;;;;;;4.03;2.78;;;;;;;;;;10409756;28;20053;-62
2022/11/29 16:57:47;;;;;;;5.50;2.92;;;;;;;;;;10408664;28;20435;-61
2022/11/29 17:02:48;;;;;;;5.20;2.60;;;;;;;;;;10409469;28;20026;-61
2022/11/29 17:07:49;;;;;;;4.22;3.30;;;;;;;;;;10424304;28;20029;-61
2022/11/29 17:12:50;;;;;;;3.78;3.38;;;;;;;;;;10412419;28;20057;-61
2022/11/29 17:17:50;;;;;;;5.07;3.05;;;;;;;;;;10409238;28;20065;-61
2022/11/29 17:22:51;;;;;;;4.93;3.38;;;;;;;;;;10409145;28;20026;-61
2022/11/29 17:27:52;;;;;;;7.82;3.15;;;;;;;;;;10409252;28;20049;-61
2022/11/29 17:32:52;;;;;;;4.78;3.42;;;;;;;;;;10408480;28;20025;-61
2022/11/29 17:37:53;;;;;;;5.15;3.33;;;;;;;;;;10408672;28;20032;-61
2022/11/29 17:42:53;;;;;;;7.57;3.83;;;;;;;;;;10408433;28;20022;-61
2022/11/29 17:47:54;;;;;;;5.63;3.60;;;;;;;;;;10407519;28;20301;-61
2022/11/29 17:52:54;;;;;;;5.63;3.78;;;;;;;;;;10407800;28;20458;-61
2022/11/29 17:57:55;;;;;;;6.18;4.22;;;;;;;;;;10407384;28;20477;-61
2022/11/29 18:02:55;;;;;;;5.60;3.83;;;;;;;;;;10401448;28;20477;-61
2022/11/29 18:07:57;;;;;;;5.32;4.00;;;;;;;;;;10394659;28;20420;-61
2022/11/29 18:12:58;;;;;;;6.80;4.65;;;;;;;;;;10414992;28;20518;-61
2022/11/29 18:17:58;;;;;;;7.70;4.60;;;;;;;;;;10404965;28;20025;-61
2022/11/29 18:22:59;;;;;;;6.55;4.68;;;;;;;;;;10380676;28;20037;-61
2022/11/29 18:28:01;;;;;;;6.78;4.57;;;;;;;;;;10352621;28;20034;-61
2022/11/29 18:33:01;;;;;;;11.50;4.95;;;;;;;;;;10407411;28;20026;-61
2022/11/29 18:38:02;;;;;;;7.45;5.13;;;;;;;;;;10396268;28;20492;-61
2022/11/29 18:43:02;;;;;;;9.38;5.32;;;;;;;;;;10394548;28;20057;-61
2022/11/29 18:48:04;;;;;;;9.38;5.97;;;;;;;;;;10231533;28;20030;-62
2022/11/29 18:53:04;;;;;;;9.82;5.60;;;;;;;;;;10399132;28;20025;-61
2022/11/29 18:58:06;;;;;;;8.88;5.88;;;;;;;;;;10391524;28;20026;-61
2022/11/29 19:03:07;;;;;;;8.25;5.90;;;;;;;;;;10382150;28;20393;-61
2022/11/29 19:08:07;;;;;;;7.00;5.53;;;;;;;;;;10385959;28;20038;-60
2022/11/29 19:13:08;;;;;;;8.30;5.50;;;;;;;;;;10397954;28;20025;-61
2022/11/29 19:18:09;;;;;;;8.60;6.22;;;;;;;;;;10394854;28;20493;-61
2022/11/29 19:23:09;;;;;;;9.13;5.68;;;;;;;;;;10401907;28;20041;-62
2022/11/29 19:28:10;;;;;;;19.10;6.60;;;;;;;;;;10399134;28;20046;-62
2022/11/29 19:33:12;;;;;;;22.10;6.75;;;;;;;;;;10409051;28;20623;-62
2022/11/29 19:38:13;;;;;;;25.90;7.65;;;;;;;;;;10398771;28;20029;-62
2022/11/29 19:43:14;;;;;;;17.05;6.10;;;;;;;;;;10408866;28;20041;-62
2022/11/29 19:48:14;;;;;;;11.48;6.35;;;;;;;;;;10406134;28;20045;-62
2022/11/29 19:53:15;;;;;;;10.02;6.13;;;;;;;;;;10401446;28;20048;-62
2022/11/29 19:58:16;;;;;;;12.57;6.40;;;;;;;;;;10403544;28;20469;-62
2022/11/29 20:03:16;;;;;;;11.95;5.88;;;;;;;;;;10405742;28;20029;-62
2022/11/29 20:08:17;;;;;;;13.77;6.65;;;;;;;;;;10412111;28;20025;-62
2022/11/29 20:13:18;;;;;;;14.13;6.50;;;;;;;;;;10416050;28;20021;-61
2022/11/29 20:18:18;;;;;;;14.43;6.95;;;;;;;;;;10406745;28;20029;-61
2022/11/29 20:23:19;;;;;;;19.13;6.80;;;;;;;;;;10411534;28;20033;-61
2022/11/29 20:28:19;;;;;;;12.75;6.50;;;;;;;;;;10409552;28;20502;-63
2022/11/29 20:33:24;;;;;;;12.40;6.90;;;;;;;;;;10399265;28;20481;-65
2022/11/29 20:38:41;;;;;;;11.52;6.80;;;;;;;;;;10408657;28;20063;-64
2022/11/29 20:43:57;;;;;;;10.30;6.72;;;;;;;;;;10407946;28;20029;-65
2022/11/29 20:48:58;;;;;;;11.65;6.53;;;;;;;;;;10420930;28;20473;-65
2022/11/29 20:53:59;;;;;;;12.30;6.32;;;;;;;;;;10409823;28;20065;-65
2022/11/29 20:58:59;;;;;;;9.05;6.35;;;;;;;;;;10410321;28;20021;-65
2022/11/29 21:04:00;;;;;;;10.32;5.82;;;;;;;;;;10408793;28;20036;-64
2022/11/29 21:09:01;;;;;;;9.82;5.97;;;;;;;;;;10410030;28;20025;-64
2022/11/29 21:14:03;;;;;;;8.55;5.82;;;;;;;;;;10411552;28;20542;-64
2022/11/29 21:19:04;;;;;;;11.10;6.13;;;;;;;;;;10409464;28;20021;-64
2022/11/29 21:24:05;;;;;;;14.60;5.85;;;;;;;;;;10405175;28;20493;-64
2022/11/29 21:29:08;;;;;;;10.50;6.05;;;;;;;;;;10396972;28;20045;-64
2022/11/29 21:34:09;;;;;;;9.68;5.60;;;;;;;;;;10402846;28;20508;-64
2022/11/29 21:39:14;;;;;;;9.48;5.88;;;;;;;;;;10400391;28;20107;-64
2022/11/29 21:44:14;;;;;;;9.20;6.15;;;;;;;;;;10404409;28;20079;-64
2022/11/29 21:49:15;;;;;;;9.38;5.53;;;;;;;;;;10396308;28;20033;-64
2022/11/29 21:54:15;;;;;;;11.50;5.88;;;;;;;;;;10404893;28;20017;-64
2022/11/29 21:59:16;;;;;;;9.55;5.93;;;;;;;;;;10402634;28;20022;-66
2022/11/29 22:04:17;;;;;;;9.80;6.30;;;;;;;;;;10398799;28;20444;-62
2022/11/29 22:09:18;;;;;;;11.65;6.70;;;;;;;;;;10406226;28;20031;-62
2022/11/29 22:14:18;;;;;;;8.75;6.53;;;;;;;;;;10408524;28;20026;-63
2022/11/29 22:19:42;;;;;;;10.75;6.13;;;;;;;;;;10401032;28;20516;-63
2022/11/29 22:24:54;;;;;;;10.25;6.10;;;;;;;;;;10362708;28;20060;-62
2022/11/29 22:29:54;;;;;;;10.40;6.47;;;;;;;;;;10361301;28;20045;-62
2022/11/29 22:34:55;;;;;;;8.85;6.53;;;;;;;;;;10356810;28;20030;-62
2022/11/29 22:39:56;;;;;;;9.70;6.22;;;;;;;;;;10359239;28;20034;-62
2022/11/29 22:44:57;;;;;;;9.05;5.72;;;;;;;;;;10363374;28;20054;-62
2022/11/29 22:49:57;;;;;;;8.35;5.32;;;;;;;;;;10348421;28;20409;-61
2022/11/29 22:54:58;;;;;;;13.93;8.07;;;;;;;;;;10350466;28;20428;-63
2022/11/29 22:59:59;;;;;;;15.73;6.47;;;;;;;;;;10365298;28;20037;-62
2022/11/29 23:04:59;;;;;;;14.25;6.35;;;;;;;;;;10363049;28;20468;-62
2022/11/29 23:10:00;;;;;;;11.38;6.35;;;;;;;;;;10371913;28;20080;-62
2022/11/29 23:15:01;;;;;;;10.80;6.88;;;;;;;;;;10367845;28;20141;-61
2022/11/29 23:20:02;;;;;;;10.32;6.85;;;;;;;;;;10371258;28;20367;-61
2022/11/29 23:25:04;;;;;;;10.57;5.93;;;;;;;;;;10369492;28;20049;-62
2022/11/29 23:30:05;;;;;;;9.75;6.53;;;;;;;;;;10394548;28;21266;-61
2022/11/29 23:35:06;;;;;;;13.93;6.35;;;;;;;;;;10384229;28;20040;-62
2022/11/29 23:40:08;;;;;;;11.32;6.30;;;;;;;;;;10383010;28;20041;-61
2022/11/29 23:45:09;;;;;;;12.05;7.28;;;;;;;;;;10397487;28;20136;-61
2022/11/29 23:50:10;;;;;;;24.58;7.47;;;;;;;;;;10388334;28;20328;-61
2022/11/29 23:55:13;;;;;;;20.83;6.75;;;;;;;;;;10361514;28;20030;-63
